createdAt,value
2023-03-14T00:00:37.959Z,11.26
2023-03-14T00:03:20.832Z,11.18
2023-03-14T00:05:52.491Z,11.26
2023-03-14T00:08:28.018Z,11.27
2023-03-14T00:10:59.139Z,11.25
2023-03-14T00:13:30.722Z,11.28
2023-03-14T00:16:10.807Z,11.30
2023-03-14T00:18:48.522Z,11.29
2023-03-14T00:21:40.211Z,11.31
2023-03-14T00:24:18.033Z,11.30
2023-03-14T00:26:49.114Z,11.21
2023-03-14T00:29:22.901Z,11.21
2023-03-14T00:31:50.809Z,11.30
2023-03-14T00:34:22.698Z,11.19
2023-03-14T00:36:54.803Z,11.27
2023-03-14T00:42:09.693Z,11.14
2023-03-14T00:47:22.920Z,11.20
2023-03-14T00:49:52.765Z,11.12
2023-03-14T00:52:25.762Z,11.19
2023-03-14T00:54:56.277Z,11.17
2023-03-14T00:57:31.026Z,11.09
2023-03-14T01:00:01.477Z,11.12
2023-03-14T01:02:29.418Z,11.09
2023-03-14T01:05:06.406Z,10.97
2023-03-14T01:07:39.287Z,11.02
2023-03-14T01:10:10.676Z,11.10
2023-03-14T01:12:44.898Z,11.18
2023-03-14T01:15:22.800Z,11.20
2023-03-14T01:17:51.817Z,11.11
2023-03-14T01:20:20.324Z,11.05
2023-03-14T01:22:57.793Z,11.08
2023-03-14T01:25:31.637Z,11.07
2023-03-14T01:28:16.204Z,11.11
2023-03-14T01:30:47.154Z,11.11
2023-03-14T01:33:21.352Z,11.05
2023-03-14T01:35:52.635Z,11.12
2023-03-14T01:38:22.746Z,11.17
2023-03-14T01:40:53.878Z,11.18
2023-03-14T01:43:22.642Z,11.13
2023-03-14T01:46:14.106Z,11.15
2023-03-14T01:49:16.790Z,11.12
2023-03-14T01:52:02.856Z,11.11
2023-03-14T01:54:47.707Z,11.06
2023-03-14T01:57:46.372Z,10.83
2023-03-14T02:00:19.439Z,10.79
2023-03-14T02:03:04.652Z,10.76
2023-03-14T02:05:44.470Z,10.80
2023-03-14T02:08:26.126Z,10.71
2023-03-14T02:11:15.078Z,10.63
2023-03-14T02:14:26.638Z,10.58
2023-03-14T02:17:29.429Z,10.57
2023-03-14T02:20:31.311Z,10.53
2023-03-14T02:23:03.795Z,10.44
2023-03-14T02:26:08.236Z,10.38
2023-03-14T02:28:38.347Z,10.20
2023-03-14T02:31:09.586Z,10.33
2023-03-14T02:33:46.894Z,10.48
2023-03-14T02:36:17.329Z,10.41
2023-03-14T02:42:16.622Z,10.40
2023-03-14T02:45:23.557Z,10.44
2023-03-14T02:48:05.125Z,10.60
2023-03-14T02:50:37.078Z,10.54
2023-03-14T02:53:08.307Z,10.27
2023-03-14T02:55:41.191Z,10.30
2023-03-14T02:58:18.958Z,10.24
2023-03-14T03:00:53.185Z,10.13
2023-03-14T03:03:21.022Z,10.26
2023-03-14T03:06:07.924Z,10.15
2023-03-14T03:08:42.069Z,9.99
2023-03-14T03:11:21.058Z,10.21
2023-03-14T03:14:02.952Z,9.99
2023-03-14T03:16:31.151Z,9.87
2023-03-14T03:19:00.784Z,10.22
2023-03-14T03:21:35.578Z,10.16
2023-03-14T03:24:06.415Z,10.31
2023-03-14T03:26:42.759Z,10.36
2023-03-14T03:29:15.507Z,10.28
2023-03-14T03:31:54.503Z,10.22
2023-03-14T03:34:29.423Z,10.28
2023-03-14T03:37:01.254Z,10.44
2023-03-14T03:39:39.564Z,10.41
2023-03-14T03:42:21.337Z,10.33
2023-03-14T03:45:04.921Z,10.39
2023-03-14T03:47:41.937Z,10.34
2023-03-14T03:50:16.000Z,10.53
2023-03-14T03:52:54.020Z,10.52
2023-03-14T03:55:31.967Z,10.56
2023-03-14T03:58:03.292Z,10.48
2023-03-14T04:00:35.309Z,10.60
2023-03-14T04:03:07.478Z,10.59
2023-03-14T04:05:38.897Z,10.77
2023-03-14T04:08:15.453Z,10.61
2023-03-14T04:10:45.649Z,10.64
2023-03-14T04:16:24.704Z,10.29
2023-03-14T04:19:16.173Z,10.49
2023-03-14T04:21:55.138Z,10.39
2023-03-14T04:24:30.196Z,10.40
2023-03-14T04:27:04.935Z,10.51
2023-03-14T04:29:46.197Z,10.46
2023-03-14T04:32:20.376Z,10.60
2023-03-14T04:35:06.243Z,10.55
2023-03-14T04:37:34.310Z,10.54
2023-03-14T04:40:10.393Z,10.60
2023-03-14T04:42:46.694Z,10.71
2023-03-14T04:45:18.375Z,10.73
2023-03-14T04:47:50.255Z,10.68
2023-03-14T04:50:33.443Z,10.84
2023-03-14T04:53:17.428Z,10.89
2023-03-14T04:55:57.336Z,11.57
2023-03-14T04:58:31.445Z,11.91
2023-03-14T05:01:15.443Z,11.96
2023-03-14T05:04:04.288Z,11.94
2023-03-14T05:06:52.900Z,11.87
2023-03-14T05:09:51.309Z,11.78
2023-03-14T05:12:24.196Z,11.79
2023-03-14T05:15:23.450Z,11.72
2023-03-14T05:18:24.875Z,12.06
2023-03-14T05:21:14.889Z,12.42
2023-03-14T05:24:23.805Z,12.22
2023-03-14T05:26:54.621Z,12.32
2023-03-14T05:29:34.373Z,12.27
2023-03-14T05:32:26.835Z,12.24
2023-03-14T05:35:27.099Z,12.23
2023-03-14T05:38:32.239Z,12.27
2023-03-14T05:41:23.851Z,12.05
2023-03-14T05:44:15.028Z,12.13
2023-03-14T05:47:10.579Z,12.18
2023-03-14T05:50:11.492Z,11.95
2023-03-14T05:53:13.400Z,11.94
2023-03-14T05:56:18.765Z,11.97
2023-03-14T05:59:18.528Z,11.88
2023-03-14T06:02:17.980Z,11.83
2023-03-14T06:04:58.775Z,11.88
2023-03-14T06:07:35.524Z,11.79
2023-03-14T06:10:09.465Z,11.79
2023-03-14T06:12:45.567Z,11.85
2023-03-14T06:15:15.716Z,11.91
2023-03-14T06:18:09.352Z,11.89
2023-03-14T06:21:03.873Z,11.92
2023-03-14T06:23:34.810Z,11.93
2023-03-14T06:26:28.631Z,12.01
2023-03-14T06:29:03.748Z,12.16
2023-03-14T06:32:03.174Z,12.15
2023-03-14T06:34:39.405Z,12.11
2023-03-14T06:37:11.292Z,12.16
2023-03-14T06:39:44.857Z,12.19
2023-03-14T06:42:25.375Z,12.28
2023-03-14T06:45:03.217Z,12.42
2023-03-14T06:47:34.284Z,12.56
2023-03-14T06:50:07.647Z,12.79
2023-03-14T06:52:42.407Z,12.92
2023-03-14T06:55:46.751Z,12.80
2023-03-14T07:01:25.498Z,12.82
2023-03-14T07:03:59.130Z,12.74
2023-03-14T07:06:30.358Z,12.89
2023-03-14T07:09:14.358Z,12.98
2023-03-14T07:11:51.561Z,12.95
2023-03-14T07:14:22.031Z,12.83
2023-03-14T07:17:09.137Z,12.88
2023-03-14T07:19:39.086Z,12.73
2023-03-14T07:22:13.711Z,12.60
2023-03-14T07:24:45.521Z,12.61
2023-03-14T07:27:15.245Z,12.59
2023-03-14T07:29:49.535Z,12.51
2023-03-14T07:32:21.343Z,12.45
2023-03-14T07:34:51.725Z,12.46
2023-03-14T07:37:23.936Z,12.46
2023-03-14T07:39:52.801Z,12.30
2023-03-14T07:42:25.144Z,12.43
2023-03-14T07:45:18.739Z,12.66
2023-03-14T07:47:47.473Z,12.88
2023-03-14T07:53:11.510Z,12.78
2023-03-14T07:55:50.311Z,12.77
2023-03-14T07:58:29.627Z,12.60
2023-03-14T08:01:10.267Z,12.55
2023-03-14T08:03:42.649Z,12.61
2023-03-14T08:06:13.820Z,12.64
2023-03-14T08:08:41.627Z,12.67
2023-03-14T08:11:21.104Z,12.63
2023-03-14T08:13:53.303Z,12.48
2023-03-14T08:16:31.205Z,12.44
2023-03-14T08:19:05.405Z,12.41
2023-03-14T08:21:42.744Z,12.42
2023-03-14T08:24:13.198Z,12.36
2023-03-14T08:26:54.336Z,12.38
2023-03-14T08:32:20.982Z,12.43
2023-03-14T08:34:55.891Z,12.39
2023-03-14T08:37:27.458Z,12.43
2023-03-14T08:42:56.946Z,12.52
2023-03-14T08:45:26.591Z,12.52
2023-03-14T08:47:56.324Z,12.51
2023-03-14T08:50:26.620Z,12.60
2023-03-14T08:53:03.635Z,12.71
2023-03-14T08:55:41.204Z,12.71
2023-03-14T08:58:10.808Z,12.85
2023-03-14T09:00:50.648Z,12.82
2023-03-14T09:03:21.593Z,12.46
2023-03-14T09:05:52.398Z,12.83
2023-03-14T09:08:20.399Z,13.03
2023-03-14T09:10:54.146Z,12.90
2023-03-14T09:13:24.822Z,13.37
2023-03-14T09:16:08.063Z,13.61
2023-03-14T09:21:20.635Z,13.86
2023-03-14T09:23:50.523Z,13.67
2023-03-14T09:26:24.280Z,13.38
2023-03-14T09:29:07.085Z,13.16
2023-03-14T09:31:34.770Z,13.15
2023-03-14T09:34:13.699Z,13.23
2023-03-14T09:36:57.748Z,13.16
2023-03-14T09:39:33.650Z,13.11
2023-03-14T09:42:10.657Z,13.18
2023-03-14T09:44:56.395Z,13.18
2023-03-14T09:47:31.390Z,12.98
2023-03-14T09:50:01.840Z,12.89
2023-03-14T09:52:45.002Z,12.88
2023-03-14T09:55:43.645Z,12.79
2023-03-14T09:58:16.489Z,12.78
2023-03-14T10:00:51.567Z,12.60
2023-03-14T10:03:34.880Z,12.60
2023-03-14T10:06:05.370Z,12.65
2023-03-14T10:08:48.930Z,12.44
2023-03-14T10:11:20.670Z,12.40
2023-03-14T10:14:13.035Z,12.34
2023-03-14T10:16:52.228Z,12.28
2023-03-14T10:19:37.725Z,12.28
2023-03-14T10:22:18.523Z,12.38
2023-03-14T10:25:11.615Z,12.27
2023-03-14T10:27:47.829Z,12.32
2023-03-14T10:30:54.242Z,12.26
2023-03-14T10:36:32.163Z,12.21
2023-03-14T10:39:25.000Z,12.18
2023-03-14T10:42:01.721Z,12.18
2023-03-14T10:44:46.015Z,12.11
2023-03-14T10:47:22.721Z,12.14
2023-03-14T10:49:57.678Z,12.25
2023-03-14T10:53:00.288Z,12.06
2023-03-14T10:55:32.397Z,12.31
2023-03-14T10:58:04.465Z,12.07
2023-03-14T11:00:37.196Z,12.09
2023-03-14T11:03:47.494Z,11.91
2023-03-14T11:06:23.205Z,12.22
2023-03-14T11:09:12.070Z,12.32
2023-03-14T11:11:49.875Z,12.30
2023-03-14T11:14:44.440Z,12.06
2023-03-14T11:17:58.682Z,12.19
2023-03-14T11:21:13.694Z,11.96
2023-03-14T11:24:24.733Z,11.94
2023-03-14T11:27:24.473Z,11.88
2023-03-14T11:30:42.856Z,11.92
2023-03-14T11:33:32.998Z,11.83
2023-03-14T11:36:04.674Z,11.76
2023-03-14T11:38:49.643Z,11.56
2023-03-14T11:41:30.552Z,11.56
2023-03-14T11:44:13.014Z,11.34
2023-03-14T11:46:51.484Z,11.59
2023-03-14T11:49:45.206Z,11.42
2023-03-14T11:52:44.359Z,11.36
2023-03-14T11:55:36.734Z,11.09
2023-03-14T11:58:54.378Z,11.28
2023-03-14T12:01:35.563Z,11.19
2023-03-14T12:04:44.812Z,11.19
2023-03-14T12:07:58.672Z,11.20
2023-03-14T12:10:42.755Z,11.18
2023-03-14T12:13:18.969Z,10.61
2023-03-14T12:16:02.103Z,10.96
2023-03-14T12:18:40.329Z,11.04
2023-03-14T12:21:12.968Z,11.03
2023-03-14T12:24:12.312Z,11.07
2023-03-14T12:27:12.680Z,11.08
2023-03-14T12:30:05.160Z,11.09
2023-03-14T12:32:36.629Z,11.13
2023-03-14T12:35:44.129Z,11.25
2023-03-14T12:38:59.657Z,11.39
2023-03-14T12:41:48.772Z,11.38
2023-03-14T12:44:55.214Z,11.28
2023-03-14T12:47:23.327Z,11.16
2023-03-14T12:49:57.543Z,11.18
2023-03-14T12:52:44.345Z,11.02
2023-03-14T12:55:31.178Z,11.07
2023-03-14T12:58:35.141Z,11.11
2023-03-14T13:01:08.370Z,11.01
2023-03-14T13:04:26.199Z,10.98
2023-03-14T13:07:01.030Z,11.04
2023-03-14T13:09:45.714Z,11.06
2023-03-14T13:12:16.650Z,10.68
2023-03-14T13:14:54.745Z,11.19
2023-03-14T13:17:40.204Z,11.14
2023-03-14T13:20:33.014Z,11.12
2023-03-14T13:23:03.538Z,11.15
2023-03-14T13:25:37.526Z,11.04
2023-03-14T13:28:08.970Z,11.05
2023-03-14T13:30:50.091Z,11.11
2023-03-14T13:33:26.200Z,11.06
2023-03-14T13:36:18.528Z,11.11
2023-03-14T13:38:55.923Z,11.10
2023-03-14T13:41:28.115Z,10.98
2023-03-14T13:44:17.224Z,10.95
2023-03-14T13:46:54.686Z,10.83
2023-03-14T13:49:27.364Z,10.81
2023-03-14T13:51:57.618Z,10.87
2023-03-14T13:54:31.011Z,10.89
2023-03-14T13:57:07.631Z,10.77
2023-03-14T13:59:37.634Z,10.92
2023-03-14T14:02:26.060Z,10.83
2023-03-14T14:04:57.063Z,10.70
2023-03-14T14:07:28.958Z,10.74
2023-03-14T14:10:07.362Z,10.69
2023-03-14T14:12:43.383Z,10.63
2023-03-14T14:15:26.141Z,10.71
2023-03-14T14:18:24.459Z,10.69
2023-03-14T14:21:00.184Z,10.60
2023-03-14T14:23:45.042Z,10.61
2023-03-14T14:26:24.329Z,10.71
2023-03-14T14:29:21.577Z,10.74
2023-03-14T14:32:13.418Z,10.66
2023-03-14T14:34:59.256Z,10.59
2023-03-14T14:37:53.751Z,10.47
2023-03-14T14:40:38.499Z,10.56
2023-03-14T14:43:10.086Z,10.51
2023-03-14T14:45:45.223Z,10.50
2023-03-14T14:48:29.814Z,10.53
2023-03-14T14:51:15.819Z,10.55
2023-03-14T14:53:56.308Z,10.58
2023-03-14T14:56:30.681Z,10.62
2023-03-14T14:59:53.844Z,10.49
2023-03-14T15:02:48.283Z,10.52
2023-03-14T15:05:32.726Z,10.57
2023-03-14T15:08:09.239Z,10.47
2023-03-14T15:10:41.064Z,10.37
2023-03-14T15:13:14.460Z,10.31
2023-03-14T15:15:49.851Z,10.30
2023-03-14T15:18:40.114Z,9.95
2023-03-14T15:21:13.414Z,10.24
2023-03-14T15:23:56.227Z,10.25
2023-03-14T15:26:34.275Z,10.31
2023-03-14T15:29:11.801Z,10.11
2023-03-14T15:31:49.604Z,10.18
2023-03-14T15:34:20.165Z,10.21
2023-03-14T15:36:52.790Z,10.07
2023-03-14T15:39:24.438Z,10.27
2023-03-14T15:41:55.231Z,10.15
2023-03-14T15:44:24.623Z,10.02
2023-03-14T15:47:05.667Z,10.06
2023-03-14T15:49:44.574Z,10.11
2023-03-14T15:52:14.163Z,10.05
2023-03-14T15:54:43.275Z,10.12
2023-03-14T15:57:16.671Z,9.95
2023-03-14T15:59:50.340Z,10.05
2023-03-14T16:02:22.962Z,10.03
2023-03-14T16:04:55.796Z,9.94
2023-03-14T16:07:24.197Z,9.78
2023-03-14T16:09:54.898Z,9.91
2023-03-14T16:12:32.386Z,9.95
2023-03-14T16:15:16.343Z,9.84
2023-03-14T16:17:58.405Z,9.82
2023-03-14T16:20:31.303Z,9.76
2023-03-14T16:23:06.795Z,9.69
2023-03-14T16:25:42.702Z,9.60
2023-03-14T16:28:13.638Z,9.82
2023-03-14T16:30:46.176Z,9.66
2023-03-14T16:36:09.227Z,9.76
2023-03-14T16:38:45.691Z,9.72
2023-03-14T16:41:29.925Z,9.63
2023-03-14T16:43:57.739Z,9.50
2023-03-14T16:46:30.931Z,9.60
2023-03-14T16:51:47.956Z,9.13
2023-03-14T16:54:18.383Z,9.39
2023-03-14T16:56:51.893Z,9.40
2023-03-14T16:59:22.256Z,9.48
2023-03-14T17:02:07.424Z,9.52
2023-03-14T17:04:36.978Z,9.62
2023-03-14T17:07:07.216Z,9.19
2023-03-14T17:09:40.869Z,9.39
2023-03-14T17:12:17.356Z,9.52
2023-03-14T17:14:50.655Z,9.48
2023-03-14T17:17:21.219Z,9.42
2023-03-14T17:19:52.662Z,9.13
2023-03-14T17:22:26.828Z,9.24
2023-03-14T17:25:03.462Z,9.23
2023-03-14T17:27:32.487Z,9.31
2023-03-14T17:30:00.485Z,9.20
2023-03-14T17:32:29.679Z,9.08
2023-03-14T17:34:58.006Z,9.11
2023-03-14T17:37:33.589Z,9.39
2023-03-14T17:40:18.194Z,9.49
2023-03-14T17:45:28.698Z,9.42
2023-03-14T17:48:00.410Z,9.45
2023-03-14T17:50:38.804Z,9.33
2023-03-14T17:53:14.022Z,9.42
2023-03-14T17:55:51.947Z,9.47
2023-03-14T17:58:24.590Z,9.51
2023-03-14T18:01:04.901Z,9.38
2023-03-14T18:03:35.529Z,9.32
2023-03-14T18:06:18.699Z,9.49
2023-03-14T18:08:47.375Z,9.35
2023-03-14T18:11:18.258Z,9.30
2023-03-14T18:13:52.811Z,9.27
2023-03-14T18:16:22.106Z,9.34
2023-03-14T18:18:57.443Z,9.22
2023-03-14T18:21:27.713Z,9.29
2023-03-14T18:23:59.005Z,9.27
2023-03-14T18:26:30.613Z,8.77
2023-03-14T18:29:04.233Z,9.20
2023-03-14T18:31:34.916Z,9.15
2023-03-14T18:34:05.602Z,9.17
2023-03-14T18:36:50.859Z,9.07
2023-03-14T18:42:06.305Z,9.21
2023-03-14T18:44:42.510Z,9.24
2023-03-14T18:47:14.161Z,9.15
2023-03-14T18:49:45.039Z,9.14
2023-03-14T18:52:16.694Z,9.15
2023-03-14T18:54:47.438Z,9.16
2023-03-14T18:57:25.844Z,9.01
2023-03-14T18:59:56.763Z,9.24
2023-03-14T19:02:26.830Z,9.27
2023-03-14T19:04:57.223Z,9.33
2023-03-14T19:07:30.072Z,9.31
2023-03-14T19:10:00.646Z,9.36
2023-03-14T19:12:30.491Z,9.41
2023-03-14T19:14:58.659Z,9.39
2023-03-14T19:17:29.252Z,9.31
2023-03-14T19:20:01.168Z,9.30
2023-03-14T19:22:33.371Z,9.33
2023-03-14T19:25:09.405Z,9.34
2023-03-14T19:27:46.855Z,9.23
2023-03-14T19:30:18.467Z,9.22
2023-03-14T19:32:49.022Z,9.27
2023-03-14T19:35:23.050Z,9.30
2023-03-14T19:38:02.287Z,9.28
2023-03-14T19:43:20.503Z,9.30
2023-03-14T19:45:58.597Z,9.29
2023-03-14T19:48:30.790Z,9.05
2023-03-14T19:51:10.424Z,9.17
2023-03-14T19:53:40.681Z,9.17
2023-03-14T19:56:11.466Z,9.15
2023-03-14T19:58:48.439Z,9.27
2023-03-14T20:01:25.212Z,9.19
2023-03-14T20:04:10.101Z,9.30
2023-03-14T20:06:41.793Z,9.27
2023-03-14T20:09:13.244Z,9.26
2023-03-14T20:11:44.318Z,9.36
2023-03-14T20:14:18.554Z,9.22
2023-03-14T20:16:52.663Z,9.40
2023-03-14T20:19:23.509Z,9.30
2023-03-14T20:21:56.951Z,9.25
2023-03-14T20:24:27.184Z,9.20
2023-03-14T20:27:05.939Z,9.16
2023-03-14T20:29:36.554Z,9.36
2023-03-14T20:32:10.319Z,9.24
2023-03-14T20:34:43.391Z,9.10
2023-03-14T20:37:14.061Z,8.98
2023-03-14T20:39:47.355Z,8.93
2023-03-14T20:42:18.116Z,8.45
2023-03-14T20:44:50.070Z,8.87
2023-03-14T20:47:20.428Z,8.92
2023-03-14T20:50:00.478Z,8.82
2023-03-14T20:52:29.548Z,8.85
2023-03-14T20:55:02.761Z,9.02
2023-03-14T20:57:34.559Z,9.08
2023-03-14T21:00:09.222Z,9.24
2023-03-14T21:02:43.252Z,9.26
2023-03-14T21:05:14.502Z,9.13
2023-03-14T21:07:46.860Z,9.20
2023-03-14T21:10:23.141Z,9.16
2023-03-14T21:12:53.624Z,9.09
2023-03-14T21:15:24.081Z,9.15
2023-03-14T21:17:54.255Z,9.11
2023-03-14T21:20:26.032Z,9.09
2023-03-14T21:23:06.808Z,9.07
2023-03-14T21:25:38.738Z,9.00
2023-03-14T21:28:09.189Z,8.94
2023-03-14T21:30:46.407Z,8.95
2023-03-14T21:33:18.893Z,9.03
2023-03-14T21:35:54.806Z,9.04
2023-03-14T21:41:10.935Z,8.91
2023-03-14T21:43:44.442Z,8.94
2023-03-14T21:46:12.901Z,8.80
2023-03-14T21:48:44.577Z,8.92
2023-03-14T21:51:13.849Z,8.97
2023-03-14T21:53:44.913Z,9.07
2023-03-14T21:56:27.118Z,9.12
2023-03-14T21:59:03.447Z,9.00
2023-03-14T22:01:34.156Z,8.92
2023-03-14T22:04:04.783Z,8.97
2023-03-14T22:06:38.518Z,9.04
2023-03-14T22:09:08.936Z,9.08
2023-03-14T22:11:40.193Z,8.99
2023-03-14T22:14:18.981Z,8.80
2023-03-14T22:16:54.917Z,8.83
2023-03-14T22:19:27.756Z,8.98
2023-03-14T22:22:00.213Z,8.87
2023-03-14T22:24:30.386Z,8.72
2023-03-14T22:26:58.186Z,8.67
2023-03-14T22:29:29.517Z,8.55
2023-03-14T22:31:59.242Z,8.90
2023-03-14T22:34:33.624Z,8.94
2023-03-14T22:37:15.431Z,8.82
2023-03-14T22:39:43.848Z,8.96
2023-03-14T22:42:23.798Z,8.91
2023-03-14T22:44:57.599Z,8.90
2023-03-14T22:47:28.784Z,8.83
2023-03-14T22:49:58.933Z,8.91
2023-03-14T22:52:33.914Z,8.68
2023-03-14T22:55:04.409Z,8.80
2023-03-14T22:57:37.216Z,8.74
2023-03-14T23:00:15.602Z,8.85
2023-03-14T23:02:49.533Z,8.66
2023-03-14T23:05:24.214Z,8.80
2023-03-14T23:07:55.885Z,8.72
2023-03-14T23:10:41.881Z,8.73
2023-03-14T23:13:26.206Z,8.73
2023-03-14T23:15:59.429Z,8.64
2023-03-14T23:18:30.783Z,8.40
2023-03-14T23:21:48.302Z,8.59
2023-03-14T23:24:22.346Z,8.63
2023-03-14T23:26:54.981Z,8.26
2023-03-14T23:29:27.081Z,8.42
2023-03-14T23:31:55.565Z,8.41
2023-03-14T23:34:27.832Z,8.45
2023-03-14T23:36:56.276Z,8.46
2023-03-14T23:39:24.195Z,8.36
2023-03-14T23:41:54.429Z,8.56
2023-03-14T23:44:27.351Z,8.51
2023-03-14T23:46:58.101Z,8.29
2023-03-14T23:49:33.116Z,8.20
2023-03-14T23:52:13.640Z,7.91
2023-03-14T23:54:51.720Z,7.99
2023-03-14T23:57:29.365Z,7.89
